Time;durP1;ratioP1;P1;durP2;ratioP2;P2;SDS_P1;SDS_P2;PMS_P1;PMS_P2;Temp;Humidity;BMP_temperature;BMP_pressure;BME280_temperature;BME280_humidity;BME280_pressure;Samples;Min_cycle;Max_cycle;Signal;HPM_P1;HPM_P2
2022/10/07 00:01:41;;;;;;;5.73;4.43;;;12.70;99.90;;;;;;5031067;28;20910;-66
2022/10/07 00:04:07;;;;;;;5.93;4.17;;;12.60;99.90;;;;;;5032596;28;20559;-66
2022/10/07 00:06:32;;;;;;;5.67;4.30;;;12.60;99.90;;;;;;5020255;28;20674;-70
2022/10/07 00:08:59;;;;;;;5.77;4.10;;;12.50;99.90;;;;;;4994855;28;20647;-66
2022/10/07 00:11:27;;;;;;;6.23;4.23;;;12.70;99.90;;;;;;5012189;28;20194;-66
2022/10/07 00:13:58;;;;;;;4.57;4.17;;;12.60;99.90;;;;;;5012710;28;20394;-66
2022/10/07 00:16:30;;;;;;;5.40;4.53;;;12.50;99.90;;;;;;5011751;28;20425;-66
2022/10/07 00:18:58;;;;;;;6.03;4.00;;;12.50;99.90;;;;;;5012536;28;21036;-66
2022/10/07 00:21:27;;;;;;;4.93;3.80;;;12.50;99.90;;;;;;5011472;28;20461;-66
2022/10/07 00:23:53;;;;;;;5.23;3.70;;;12.50;99.90;;;;;;4995264;28;20739;-66
2022/10/07 00:26:26;;;;;;;5.97;3.83;;;12.50;99.80;;;;;;5014586;28;20402;-65
2022/10/07 00:28:52;;;;;;;5.27;4.43;;;12.40;99.70;;;;;;5015039;28;20432;-66
2022/10/07 00:31:23;;;;;;;8.53;4.80;;;12.50;99.90;;;;;;4997439;28;20767;-66
2022/10/07 00:33:50;;;;;;;4.07;3.60;;;12.50;99.90;;;;;;5015839;28;20218;-66
2022/10/07 00:36:22;;;;;;;6.33;3.90;;;12.50;99.90;;;;;;5016378;28;20490;-66
2022/10/07 00:38:54;;;;;;;7.27;4.00;;;12.40;99.90;;;;;;5016289;28;20468;-66
2022/10/07 00:41:29;;;;;;;4.00;3.60;;;12.50;99.90;;;;;;4949372;28;20802;-66
2022/10/07 00:43:55;;;;;;;8.57;4.37;;;12.40;99.90;;;;;;5015675;28;20432;-66
2022/10/07 00:46:32;;;;;;;4.07;3.33;;;12.40;99.90;;;;;;5016437;28;20410;-66
2022/10/07 00:49:07;;;;;;;4.13;3.50;;;12.40;99.70;;;;;;5016172;28;20437;-66
2022/10/07 00:51:33;;;;;;;3.97;3.40;;;12.30;99.60;;;;;;5014528;28;20859;-70
2022/10/07 00:54:02;;;;;;;5.30;3.60;;;12.40;99.70;;;;;;5015641;28;20933;-66
2022/10/07 00:56:28;;;;;;;6.63;3.90;;;12.30;99.80;;;;;;5014426;28;20430;-66
2022/10/07 00:58:57;;;;;;;5.33;3.67;;;12.30;99.90;;;;;;5014539;28;20459;-66
2022/10/07 01:01:25;;;;;;;4.43;3.80;;;12.40;99.90;;;;;;5015292;28;20429;-66
2022/10/07 01:03:52;;;;;;;5.40;3.80;;;12.20;99.70;;;;;;5015771;28;20521;-66
2022/10/07 01:06:18;;;;;;;6.17;4.13;;;12.20;99.90;;;;;;4997732;28;20460;-66
2022/10/07 01:08:46;;;;;;;9.33;4.37;;;12.20;99.90;;;;;;5015093;28;20449;-66
2022/10/07 01:11:32;;;;;;;3.90;3.60;;;12.20;99.90;;;;;;5015593;28;20178;-66
2022/10/07 01:14:19;;;;;;;4.30;3.90;;;12.20;99.90;;;;;;5015400;28;20397;-66
2022/10/07 01:16:55;;;;;;;6.00;3.83;;;12.20;99.90;;;;;;5015382;28;20805;-66
2022/10/07 01:20:06;;;;;;;4.17;3.60;;;12.20;99.90;;;;;;5014868;28;20468;-66
2022/10/07 01:23:25;;;;;;;4.17;3.50;;;12.20;99.90;;;;;;5010157;28;20455;-66
2022/10/07 01:26:21;;;;;;;6.10;4.17;;;12.20;99.90;;;;;;4935471;29;20810;-66
2022/10/07 01:29:12;;;;;;;4.90;4.30;;;12.10;99.90;;;;;;5011924;28;20917;-65
2022/10/07 01:31:45;;;;;;;7.03;4.57;;;12.10;99.90;;;;;;5014705;28;20404;-66
2022/10/07 01:34:13;;;;;;;5.13;4.60;;;12.00;99.90;;;;;;5015260;28;20401;-66
2022/10/07 01:36:40;;;;;;;5.10;4.40;;;12.00;99.90;;;;;;4995923;28;20422;-66
2022/10/07 01:39:11;;;;;;;6.80;4.07;;;12.00;99.90;;;;;;4997001;28;20449;-66
2022/10/07 01:41:38;;;;;;;4.63;3.43;;;12.00;99.90;;;;;;5013898;28;20473;-66
2022/10/07 01:44:06;;;;;;;7.53;4.10;;;12.00;99.90;;;;;;5015038;28;20408;-66
2022/10/07 01:46:36;;;;;;;4.03;3.50;;;12.00;99.90;;;;;;5013913;28;20825;-66
2022/10/07 01:49:05;;;;;;;5.13;4.00;;;12.10;99.90;;;;;;4995417;28;20477;-65
2022/10/07 01:51:36;;;;;;;4.57;4.17;;;12.10;99.90;;;;;;4994803;28;20498;-66
2022/10/07 01:54:37;;;;;;;7.23;4.03;;;12.00;99.90;;;;;;4995325;28;20403;-66
2022/10/07 01:57:22;;;;;;;7.03;4.60;;;12.00;99.90;;;;;;5002484;28;20413;-66
2022/10/07 02:00:04;;;;;;;6.60;3.80;;;12.00;99.90;;;;;;5013806;28;20438;-66
2022/10/07 02:02:51;;;;;;;5.23;3.47;;;12.00;99.90;;;;;;5013923;28;20398;-66
2022/10/07 02:05:27;;;;;;;4.80;4.27;;;12.00;99.90;;;;;;5015311;28;20754;-66
2022/10/07 02:08:15;;;;;;;7.10;4.23;;;12.00;99.90;;;;;;5034492;28;20397;-66
2022/10/07 02:11:24;;;;;;;6.00;4.90;;;12.00;99.90;;;;;;5031408;28;20478;-65
2022/10/07 02:14:00;;;;;;;6.00;4.73;;;11.90;99.90;;;;;;4972386;28;20446;-66
2022/10/07 02:16:32;;;;;;;4.73;4.20;;;11.90;99.90;;;;;;4973121;28;20435;-66
2022/10/07 02:19:00;;;;;;;4.90;4.40;;;11.90;99.90;;;;;;4973227;28;20474;-66
2022/10/07 02:21:33;;;;;;;4.80;4.07;;;11.90;99.90;;;;;;4973022;28;20431;-66
2022/10/07 02:24:00;;;;;;;4.90;4.30;;;11.90;99.90;;;;;;4973017;28;20396;-66
2022/10/07 02:26:29;;;;;;;5.30;4.50;;;11.90;99.90;;;;;;4972873;28;20411;-65
2022/10/07 02:28:56;;;;;;;5.80;4.73;;;11.90;99.90;;;;;;4972021;28;20435;-65
2022/10/07 02:31:27;;;;;;;8.43;4.77;;;11.90;99.90;;;;;;4972695;28;20422;-66
2022/10/07 02:33:56;;;;;;;9.47;5.20;;;11.90;99.90;;;;;;4972868;28;20518;-65
2022/10/07 02:36:30;;;;;;;8.87;5.27;;;11.80;99.90;;;;;;4972697;28;20423;-65
2022/10/07 02:38:56;;;;;;;6.47;5.10;;;11.80;99.90;;;;;;4953498;29;20475;-66
2022/10/07 02:41:40;;;;;;;5.70;4.30;;;11.80;99.90;;;;;;4953315;29;20413;-66
2022/10/07 02:44:24;;;;;;;5.77;5.10;;;11.80;99.90;;;;;;4974283;28;20502;-66
2022/10/07 02:47:04;;;;;;;9.30;5.63;;;11.80;99.90;;;;;;5027458;28;20417;-66
2022/10/07 02:49:37;;;;;;;7.57;5.53;;;11.80;99.90;;;;;;5032869;28;20542;-66
2022/10/07 02:52:09;;;;;;;6.07;5.00;;;11.80;99.90;;;;;;5017012;28;20407;-66
2022/10/07 02:54:46;;;;;;;6.20;4.93;;;11.80;99.90;;;;;;5013067;28;20424;-66
2022/10/07 02:57:18;;;;;;;9.17;5.03;;;11.80;99.90;;;;;;5025427;28;20444;-66
2022/10/07 02:59:46;;;;;;;6.60;5.50;;;11.80;99.90;;;;;;5032698;28;20441;-66
2022/10/07 03:02:17;;;;;;;8.60;5.63;;;11.80;99.90;;;;;;5015531;28;20421;-66
2022/10/07 03:04:42;;;;;;;7.13;5.27;;;11.70;99.90;;;;;;5027331;28;20431;-66
2022/10/07 03:07:11;;;;;;;8.57;4.90;;;11.70;99.90;;;;;;5032976;28;20433;-66
2022/10/07 03:09:36;;;;;;;7.70;5.17;;;11.80;99.90;;;;;;5032649;28;20411;-66
2022/10/07 03:12:04;;;;;;;6.93;4.07;;;11.70;99.90;;;;;;5015831;28;20468;-66
2022/10/07 03:14:30;;;;;;;7.23;4.60;;;11.70;99.90;;;;;;5018631;28;20456;-66
2022/10/07 03:16:55;;;;;;;7.70;4.60;;;11.60;99.90;;;;;;5027484;28;20417;-66
2022/10/07 03:19:21;;;;;;;6.37;5.00;;;11.70;99.90;;;;;;5032949;28;20843;-66
2022/10/07 03:21:47;;;;;;;5.27;4.77;;;11.70;99.90;;;;;;5031829;28;20616;-66
2022/10/07 03:24:13;;;;;;;5.40;4.97;;;11.70;99.90;;;;;;5032386;28;20596;-66
2022/10/07 03:26:38;;;;;;;5.17;4.67;;;11.70;99.90;;;;;;5031096;28;20515;-69
2022/10/07 03:29:04;;;;;;;12.50;5.33;;;11.70;99.90;;;;;;5032890;28;20572;-66
2022/10/07 03:31:30;;;;;;;7.77;5.80;;;11.70;99.90;;;;;;5032880;28;20245;-66
2022/10/07 03:33:57;;;;;;;6.20;5.33;;;11.70;99.90;;;;;;5032880;28;20177;-66
2022/10/07 03:36:23;;;;;;;8.53;5.63;;;11.70;99.90;;;;;;5032536;28;20768;-66
2022/10/07 03:38:49;;;;;;;6.40;5.80;;;11.70;99.90;;;;;;5032103;28;20458;-66
2022/10/07 03:41:16;;;;;;;9.87;7.40;;;11.70;99.90;;;;;;5032550;28;20870;-67
2022/10/07 03:43:42;;;;;;;9.63;8.20;;;11.70;99.90;;;;;;5031495;28;20405;-66
2022/10/07 03:46:08;;;;;;;7.47;5.63;;;11.70;99.90;;;;;;5032695;28;20907;-68
2022/10/07 03:48:34;;;;;;;10.47;8.53;;;11.60;99.90;;;;;;5032088;28;20445;-67
2022/10/07 03:50:59;;;;;;;8.53;7.70;;;11.60;99.90;;;;;;5032026;28;20193;-66
2022/10/07 03:53:28;;;;;;;6.63;5.07;;;11.60;99.90;;;;;;4981581;28;20228;-66
2022/10/07 03:55:54;;;;;;;8.23;7.43;;;11.70;99.90;;;;;;5014366;28;20534;-66
2022/10/07 03:58:20;;;;;;;7.53;6.60;;;11.50;99.90;;;;;;5031796;28;21033;-66
2022/10/07 04:00:46;;;;;;;10.00;8.00;;;11.50;99.90;;;;;;5032726;28;20435;-66
2022/10/07 04:03:14;;;;;;;13.90;8.67;;;11.50;99.90;;;;;;5036978;28;20460;-66
2022/10/07 04:05:40;;;;;;;8.93;8.23;;;11.50;99.90;;;;;;5031470;28;20223;-66
2022/10/07 04:08:06;;;;;;;8.07;5.83;;;11.50;99.90;;;;;;5016794;28;20882;-65
2022/10/07 04:10:33;;;;;;;12.03;6.80;;;11.50;99.90;;;;;;5015714;28;20966;-66
2022/10/07 04:12:59;;;;;;;7.93;6.00;;;11.50;99.90;;;;;;5016793;28;20183;-66
2022/10/07 04:15:25;;;;;;;6.27;5.67;;;11.50;99.90;;;;;;5016158;28;20426;-66
2022/10/07 04:17:58;;;;;;;6.50;4.77;;;11.40;99.90;;;;;;4998466;28;20416;-65
2022/10/07 04:20:25;;;;;;;6.23;5.63;;;11.50;99.90;;;;;;5016909;28;20411;-66
2022/10/07 04:22:53;;;;;;;8.63;7.73;;;11.50;99.90;;;;;;4998376;28;20396;-66
2022/10/07 04:25:34;;;;;;;9.07;8.37;;;11.50;99.90;;;;;;5016506;28;20415;-66
2022/10/07 04:28:16;;;;;;;8.97;8.17;;;11.40;99.90;;;;;;5015745;28;20427;-66
2022/10/07 04:30:42;;;;;;;8.93;8.17;;;11.50;99.90;;;;;;5011514;28;20446;-65
2022/10/07 04:33:09;;;;;;;9.20;5.83;;;11.50;99.90;;;;;;4998675;28;20767;-64
2022/10/07 04:35:39;;;;;;;6.90;6.20;;;11.40;99.90;;;;;;5015883;28;20398;-76
2022/10/07 04:38:12;;;;;;;6.40;5.80;;;11.40;99.90;;;;;;4949615;28;20504;-66
2022/10/07 04:40:40;;;;;;;5.87;5.10;;;11.40;99.90;;;;;;5015594;28;20528;-66
2022/10/07 04:43:19;;;;;;;6.80;5.40;;;11.40;99.90;;;;;;5014548;28;20483;-67
2022/10/07 04:45:51;;;;;;;8.33;6.10;;;11.30;99.90;;;;;;5005202;28;20769;-66
2022/10/07 04:48:17;;;;;;;8.93;5.93;;;11.30;99.90;;;;;;5011153;28;20773;-66
2022/10/07 04:50:43;;;;;;;5.70;5.00;;;11.20;99.90;;;;;;5004847;28;20429;-66
2022/10/07 04:53:13;;;;;;;9.10;5.27;;;11.20;99.90;;;;;;5015810;28;20481;-66
2022/10/07 04:55:43;;;;;;;6.20;4.87;;;11.20;99.90;;;;;;5015492;28;20768;-66
2022/10/07 04:58:09;;;;;;;6.00;5.10;;;11.10;99.90;;;;;;5014846;28;20441;-66
2022/10/07 05:00:43;;;;;;;6.57;5.30;;;11.00;99.90;;;;;;5015758;28;20967;-65
2022/10/07 05:03:10;;;;;;;6.57;5.60;;;11.00;99.90;;;;;;5014764;28;20277;-63
2022/10/07 05:05:40;;;;;;;8.87;6.93;;;10.90;99.90;;;;;;5018951;28;20440;-67
2022/10/07 05:08:06;;;;;;;8.80;7.30;;;10.90;99.90;;;;;;5035400;28;20452;-62
2022/10/07 05:10:35;;;;;;;9.00;7.30;;;10.80;99.90;;;;;;5035356;28;20959;-62
2022/10/07 05:13:00;;;;;;;8.73;6.43;;;10.80;99.90;;;;;;5034578;28;20405;-65
2022/10/07 05:15:26;;;;;;;8.87;6.80;;;10.80;99.90;;;;;;5035491;28;20439;-62
2022/10/07 05:17:54;;;;;;;8.47;6.93;;;10.70;99.90;;;;;;5034584;28;20229;-63
2022/10/07 05:20:20;;;;;;;8.47;7.20;;;10.70;99.90;;;;;;5017113;28;20645;-63
2022/10/07 05:22:46;;;;;;;7.60;6.90;;;10.60;99.90;;;;;;5034497;28;20443;-63
2022/10/07 05:25:12;;;;;;;10.43;7.30;;;10.60;99.90;;;;;;5035143;28;20411;-63
2022/10/07 05:27:39;;;;;;;13.43;9.10;;;10.60;99.90;;;;;;5032395;28;20927;-70
2022/10/07 05:30:05;;;;;;;13.30;9.73;;;10.50;99.90;;;;;;5029044;28;20535;-64
2022/10/07 05:32:31;;;;;;;11.70;9.00;;;10.50;99.90;;;;;;5015220;28;20477;-64
2022/10/07 05:34:57;;;;;;;12.50;9.00;;;10.50;99.90;;;;;;5023761;28;20426;-64
2022/10/07 05:37:22;;;;;;;21.10;11.00;;;10.50;99.90;;;;;;5027809;28;20189;-64
2022/10/07 05:39:48;;;;;;;14.23;9.40;;;10.50;99.90;;;;;;5029855;28;20242;-64
2022/10/07 05:42:14;;;;;;;12.80;9.30;;;10.50;99.90;;;;;;5035038;28;20179;-64
2022/10/07 05:44:40;;;;;;;13.17;10.63;;;10.60;99.90;;;;;;5034189;28;20171;-64
2022/10/07 05:47:05;;;;;;;14.20;10.53;;;10.50;99.90;;;;;;5033488;28;20487;-64
2022/10/07 05:49:31;;;;;;;17.90;10.83;;;10.50;99.90;;;;;;5034139;28;20192;-65
2022/10/07 05:51:57;;;;;;;12.40;9.00;;;10.50;99.90;;;;;;5024909;28;20272;-64
2022/10/07 05:54:23;;;;;;;15.53;10.23;;;10.50;99.90;;;;;;5000246;28;20187;-64
2022/10/07 05:56:49;;;;;;;12.53;10.00;;;10.50;99.90;;;;;;5025363;28;20244;-64
2022/10/07 05:59:14;;;;;;;16.70;10.00;;;10.50;99.90;;;;;;5033298;28;20556;-64
2022/10/07 06:01:41;;;;;;;10.70;8.63;;;10.50;99.90;;;;;;5033890;28;20176;-64
2022/10/07 06:04:07;;;;;;;10.27;7.17;;;10.40;99.90;;;;;;5034384;28;20421;-64
2022/10/07 06:06:37;;;;;;;11.53;8.37;;;10.40;99.90;;;;;;5032497;28;20475;-63
2022/10/07 06:14:32;;;;;;;10.57;9.30;;;10.40;99.90;;;;;;5033595;28;20433;-63
2022/10/07 06:16:59;;;;;;;11.17;9.00;;;10.40;99.90;;;;;;5033539;28;20795;-63
2022/10/07 06:19:25;;;;;;;12.60;9.13;;;10.40;99.90;;;;;;5034060;28;20554;-63
2022/10/07 06:21:51;;;;;;;12.60;8.90;;;10.40;99.90;;;;;;5033395;28;20488;-63
2022/10/07 06:24:16;;;;;;;16.47;9.67;;;10.40;99.90;;;;;;5033120;28;20496;-62
2022/10/07 06:26:42;;;;;;;14.40;11.07;;;10.40;99.90;;;;;;5002407;28;20250;-63
2022/10/07 06:29:10;;;;;;;12.17;9.80;;;10.40;99.90;;;;;;5033641;28;20625;-62
2022/10/07 06:31:36;;;;;;;17.97;10.13;;;10.40;99.90;;;;;;5033005;28;20634;-63
2022/10/07 06:34:02;;;;;;;17.50;10.90;;;10.40;99.90;;;;;;5032321;28;20438;-62
2022/10/07 06:36:27;;;;;;;15.33;10.30;;;10.50;99.90;;;;;;5033783;28;20174;-63
2022/10/07 06:38:54;;;;;;;18.77;11.73;;;10.50;99.90;;;;;;5032994;28;20214;-63
2022/10/07 06:41:21;;;;;;;17.67;11.47;;;10.50;99.90;;;;;;5032301;28;20179;-63
2022/10/07 06:43:47;;;;;;;18.00;11.67;;;10.60;99.90;;;;;;5032876;28;20435;-63
2022/10/07 06:46:15;;;;;;;20.60;11.70;;;10.60;99.90;;;;;;5033399;28;20435;-62
2022/10/07 06:48:43;;;;;;;18.97;10.07;;;10.70;99.90;;;;;;5031993;28;20444;-63
2022/10/07 06:51:13;;;;;;;24.70;10.67;;;10.70;99.90;;;;;;5033516;28;20457;-63
2022/10/07 06:53:38;;;;;;;16.57;12.60;;;10.80;99.90;;;;;;5014754;28;20421;-62
2022/10/07 06:56:05;;;;;;;19.00;11.87;;;10.80;99.90;;;;;;5029603;28;20619;-62
2022/10/07 06:58:31;;;;;;;15.27;10.60;;;10.80;99.90;;;;;;5033585;28;20301;-62
2022/10/07 07:01:00;;;;;;;20.20;11.50;;;10.90;99.90;;;;;;5032422;28;20479;-63
2022/10/07 07:03:27;;;;;;;27.07;13.90;;;10.90;99.90;;;;;;5032607;28;20436;-63
2022/10/07 07:05:53;;;;;;;17.70;12.73;;;11.00;99.90;;;;;;5030883;28;20467;-63
2022/10/07 07:08:20;;;;;;;20.90;11.90;;;11.00;99.90;;;;;;5031669;28;20444;-62
2022/10/07 07:10:46;;;;;;;21.50;11.77;;;11.10;99.90;;;;;;5031133;28;20470;-63
2022/10/07 07:13:12;;;;;;;17.73;11.53;;;11.10;99.90;;;;;;5033043;28;20922;-62
2022/10/07 07:15:39;;;;;;;16.63;11.27;;;11.20;99.90;;;;;;5032017;28;20444;-63
2022/10/07 07:18:07;;;;;;;18.20;11.63;;;11.20;99.90;;;;;;5032046;28;20789;-62
2022/10/07 07:20:36;;;;;;;17.90;12.10;;;11.30;99.90;;;;;;5030516;28;20855;-62
2022/10/07 07:23:06;;;;;;;20.93;11.80;;;11.40;99.90;;;;;;5031615;28;20416;-62
2022/10/07 07:25:36;;;;;;;20.80;11.27;;;11.50;99.90;;;;;;5032903;28;20491;-62
2022/10/07 07:28:02;;;;;;;17.50;10.23;;;11.50;99.90;;;;;;5032331;28;20475;-62
2022/10/07 07:30:28;;;;;;;27.87;12.40;;;11.60;99.90;;;;;;5032811;28;20444;-62
2022/10/07 07:32:57;;;;;;;16.77;9.00;;;11.70;99.90;;;;;;5032184;28;20813;-63
2022/10/07 07:35:25;;;;;;;13.93;8.70;;;11.80;99.90;;;;;;5031909;28;20411;-63
2022/10/07 07:37:51;;;;;;;12.07;7.60;;;11.80;99.90;;;;;;5032145;28;20415;-62
2022/10/07 07:40:18;;;;;;;9.37;7.53;;;11.90;99.90;;;;;;5032369;28;20456;-62
2022/10/07 07:42:47;;;;;;;11.43;7.27;;;12.00;99.90;;;;;;5032683;28;20428;-62
2022/10/07 07:45:14;;;;;;;10.93;7.33;;;12.00;99.90;;;;;;5032608;28;20472;-62
2022/10/07 07:47:40;;;;;;;7.40;6.53;;;12.10;99.90;;;;;;5031714;28;20432;-64
2022/10/07 07:50:07;;;;;;;10.47;5.87;;;12.20;99.90;;;;;;5031579;28;20424;-62
2022/10/07 07:52:33;;;;;;;14.87;7.10;;;12.40;99.90;;;;;;5032532;28;20412;-63
2022/10/07 07:55:02;;;;;;;10.20;6.73;;;12.40;99.90;;;;;;5031638;28;20427;-63
2022/10/07 07:57:29;;;;;;;9.47;6.40;;;12.50;99.90;;;;;;5032469;28;20979;-62
2022/10/07 07:59:55;;;;;;;12.13;8.00;;;12.60;99.90;;;;;;5030846;28;20472;-63
2022/10/07 08:02:22;;;;;;;9.20;6.80;;;12.80;99.90;;;;;;5032531;28;20429;-63
2022/10/07 08:04:48;;;;;;;8.40;6.20;;;12.80;99.90;;;;;;5031931;28;20472;-63
2022/10/07 08:07:14;;;;;;;7.10;5.63;;;13.00;99.90;;;;;;5032615;28;20798;-62
2022/10/07 08:09:40;;;;;;;8.80;5.43;;;13.00;99.90;;;;;;5032721;28;20427;-62
2022/10/07 08:12:06;;;;;;;9.43;6.63;;;13.10;99.90;;;;;;5031771;28;20503;-63
2022/10/07 08:14:32;;;;;;;7.90;5.83;;;13.20;99.90;;;;;;5032377;28;20224;-63
2022/10/07 08:16:58;;;;;;;7.87;6.13;;;13.20;99.90;;;;;;5031416;28;20416;-63
2022/10/07 08:19:25;;;;;;;9.90;5.97;;;13.30;99.90;;;;;;5032209;28;20563;-63
2022/10/07 08:21:52;;;;;;;7.93;5.70;;;13.40;99.90;;;;;;5030934;28;20192;-63
2022/10/07 08:24:18;;;;;;;9.93;6.37;;;13.50;99.90;;;;;;5032329;28;20504;-62
2022/10/07 08:26:44;;;;;;;11.70;5.67;;;13.60;99.90;;;;;;5032214;28;20409;-63
2022/10/07 08:29:09;;;;;;;9.03;5.77;;;13.70;99.90;;;;;;5031373;28;20433;-63
2022/10/07 08:31:35;;;;;;;10.30;4.53;;;13.80;99.90;;;;;;5014648;28;20409;-62
2022/10/07 08:34:03;;;;;;;6.20;5.27;;;14.00;99.90;;;;;;5031552;28;20186;-63
2022/10/07 08:36:31;;;;;;;7.67;4.90;;;14.00;99.90;;;;;;5031181;28;20195;-63
2022/10/07 08:38:57;;;;;;;5.13;4.47;;;14.10;99.90;;;;;;5031493;28;20464;-63
2022/10/07 08:41:31;;;;;;;6.10;4.70;;;14.30;99.90;;;;;;5031333;28;20508;-63
2022/10/07 08:43:58;;;;;;;4.97;4.57;;;14.40;99.90;;;;;;5031317;28;20415;-63
2022/10/07 08:46:35;;;;;;;4.33;3.83;;;14.60;99.90;;;;;;5014781;28;20936;-63
2022/10/07 08:49:10;;;;;;;5.70;4.50;;;14.70;99.90;;;;;;5034990;28;20421;-63
2022/10/07 08:52:12;;;;;;;6.27;4.50;;;14.90;99.90;;;;;;5035773;28;20456;-63
2022/10/07 08:54:37;;;;;;;9.73;4.80;;;15.00;99.90;;;;;;4981604;28;20998;-63
2022/10/07 08:57:13;;;;;;;7.30;4.23;;;15.20;99.90;;;;;;5035114;28;20510;-63
2022/10/07 08:59:46;;;;;;;7.80;4.77;;;15.30;99.90;;;;;;5036003;28;20214;-63
2022/10/07 09:02:18;;;;;;;6.10;4.43;;;15.50;99.90;;;;;;5035043;28;20404;-63
2022/10/07 09:04:55;;;;;;;4.20;3.80;;;15.70;99.90;;;;;;5035518;28;20458;-63
2022/10/07 09:07:33;;;;;;;6.30;4.40;;;15.90;99.90;;;;;;5035869;28;20464;-62
2022/10/07 09:10:02;;;;;;;5.77;4.50;;;16.10;99.90;;;;;;5034395;28;20411;-62
2022/10/07 09:12:52;;;;;;;6.00;4.33;;;16.30;99.90;;;;;;5032340;28;20432;-63
2022/10/07 09:15:26;;;;;;;6.73;3.53;;;16.50;99.90;;;;;;5034704;28;20428;-63
2022/10/07 09:17:59;;;;;;;6.30;3.30;;;16.70;99.60;;;;;;5034802;28;20416;-63
2022/10/07 09:20:30;;;;;;;5.40;3.40;;;16.90;98.70;;;;;;5035299;28;20437;-63
2022/10/07 09:22:57;;;;;;;5.63;5.03;;;17.20;98.40;;;;;;5033579;28;20451;-63
2022/10/07 09:25:28;;;;;;;4.27;3.17;;;17.40;97.00;;;;;;5035206;28;20435;-63
2022/10/07 09:27:54;;;;;;;3.90;3.30;;;17.60;95.70;;;;;;5034661;28;20429;-63
2022/10/07 09:30:21;;;;;;;5.63;4.43;;;17.90;94.10;;;;;;5035317;28;20463;-63
2022/10/07 09:32:53;;;;;;;4.77;3.13;;;18.10;93.30;;;;;;5035088;28;20397;-63
2022/10/07 09:35:25;;;;;;;5.13;2.70;;;18.30;93.10;;;;;;5033549;28;20476;-64
2022/10/07 09:38:02;;;;;;;3.37;3.10;;;18.50;92.40;;;;;;4995765;28;20399;-63
2022/10/07 09:43:31;;;;;;;5.77;4.20;;;19.00;92.00;;;;;;4997702;28;20414;-63
2022/10/07 09:45:59;;;;;;;3.97;3.57;;;19.30;90.70;;;;;;5031748;28;20421;-63
2022/10/07 09:48:32;;;;;;;4.10;3.80;;;19.40;91.00;;;;;;5034988;28;20482;-63
2022/10/07 09:51:18;;;;;;;6.17;3.93;;;19.70;90.90;;;;;;5034180;28;20409;-63
2022/10/07 09:54:04;;;;;;;5.93;3.80;;;19.90;90.50;;;;;;5034913;28;20772;-63
2022/10/07 09:56:40;;;;;;;4.07;3.20;;;20.10;89.50;;;;;;5034830;28;20411;-63
2022/10/07 09:59:32;;;;;;;4.00;3.40;;;20.30;87.20;;;;;;5032938;28;20861;-63
2022/10/07 10:02:13;;;;;;;7.43;3.60;;;20.60;85.80;;;;;;5027556;28;20452;-63
2022/10/07 10:04:56;;;;;;;5.03;3.10;;;20.80;86.00;;;;;;5034519;28;20408;-63
2022/10/07 10:07:31;;;;;;;6.17;4.37;;;21.00;83.40;;;;;;5034640;28;20527;-63
2022/10/07 10:10:03;;;;;;;3.83;3.23;;;21.20;82.60;;;;;;5033799;28;20508;-63
2022/10/07 10:12:36;;;;;;;8.60;3.90;;;21.40;82.50;;;;;;5034441;28;20742;-63
2022/10/07 10:15:22;;;;;;;4.50;3.50;;;21.40;79.30;;;;;;5032273;28;20428;-63
2022/10/07 10:17:48;;;;;;;6.57;3.57;;;21.50;79.40;;;;;;5031961;28;20454;-62
2022/10/07 10:20:23;;;;;;;9.97;3.50;;;21.70;78.80;;;;;;5032265;28;20464;-62
2022/10/07 10:22:50;;;;;;;3.87;3.57;;;21.70;77.60;;;;;;4953832;29;20420;-62
2022/10/07 10:28:52;;;;;;;6.83;3.40;;;22.00;79.10;;;;;;4953002;29;20417;-62
2022/10/07 10:32:07;;;;;;;5.80;4.00;;;22.30;78.00;;;;;;4952797;29;20404;-62
2022/10/07 10:34:51;;;;;;;5.40;3.40;;;22.60;75.30;;;;;;4859136;29;20430;-62
2022/10/07 10:37:20;;;;;;;5.90;2.97;;;22.80;75.10;;;;;;4944597;29;20440;-62
2022/10/07 10:40:06;;;;;;;5.33;3.40;;;23.00;74.50;;;;;;4937061;29;20476;-62
2022/10/07 10:42:54;;;;;;;6.83;3.47;;;23.10;72.10;;;;;;4953219;29;20524;-62
2022/10/07 10:45:44;;;;;;;3.90;3.60;;;23.00;72.30;;;;;;4952554;29;20436;-62
2022/10/07 10:49:00;;;;;;;7.07;3.27;;;23.20;70.40;;;;;;4950388;29;20448;-62
2022/10/07 10:51:56;;;;;;;4.53;3.47;;;23.20;68.60;;;;;;4858987;29;20420;-62
2022/10/07 10:54:43;;;;;;;7.80;3.90;;;23.30;70.80;;;;;;5010219;28;20425;-62
2022/10/07 10:57:32;;;;;;;5.23;3.60;;;23.40;69.00;;;;;;5032924;28;20772;-63
2022/10/07 11:00:07;;;;;;;6.90;4.20;;;23.50;68.90;;;;;;5032788;28;20453;-63
2022/10/07 11:02:41;;;;;;;10.53;3.73;;;23.50;68.20;;;;;;5033412;28;20446;-63
2022/10/07 11:05:30;;;;;;;4.33;3.60;;;23.60;68.90;;;;;;5027279;28;20831;-62
2022/10/07 11:08:09;;;;;;;5.50;3.27;;;23.60;67.50;;;;;;5013486;28;20509;-62
2022/10/07 11:10:54;;;;;;;5.30;4.17;;;23.40;67.00;;;;;;5013410;28;20409;-63
2022/10/07 11:13:26;;;;;;;4.00;3.60;;;23.40;68.60;;;;;;4997711;28;20417;-62
2022/10/07 11:16:10;;;;;;;5.33;3.33;;;23.50;67.60;;;;;;5013367;28;20891;-62
2022/10/07 11:19:00;;;;;;;5.00;3.37;;;23.60;65.10;;;;;;5012142;28;20941;-62
2022/10/07 11:21:32;;;;;;;10.30;4.50;;;23.80;65.60;;;;;;5013298;28;20410;-62
2022/10/07 11:24:10;;;;;;;5.70;3.60;;;23.80;68.60;;;;;;5013136;28;20882;-62
2022/10/07 11:26:50;;;;;;;3.70;3.40;;;23.80;63.60;;;;;;5013279;28;20879;-62
2022/10/07 11:29:41;;;;;;;6.27;3.70;;;23.80;63.90;;;;;;5012633;28;20473;-62
2022/10/07 11:32:17;;;;;;;6.07;3.83;;;23.80;63.80;;;;;;5012216;28;20910;-62
2022/10/07 11:34:49;;;;;;;5.93;3.80;;;23.60;63.50;;;;;;5012573;28;20800;-62
2022/10/07 11:37:36;;;;;;;6.20;3.80;;;23.20;65.80;;;;;;5012550;28;20461;-62
2022/10/07 11:40:06;;;;;;;5.40;3.90;;;23.20;67.80;;;;;;5012402;28;20458;-62
2022/10/07 11:42:41;;;;;;;6.63;4.03;;;23.20;66.40;;;;;;5012388;28;20932;-62
2022/10/07 11:45:27;;;;;;;4.10;3.70;;;23.30;66.40;;;;;;5011745;28;20496;-62
2022/10/07 11:48:07;;;;;;;4.90;4.10;;;23.40;66.00;;;;;;5012658;28;20437;-62
2022/10/07 11:50:40;;;;;;;6.73;3.80;;;23.40;65.30;;;;;;5012863;28;20405;-62
2022/10/07 11:53:09;;;;;;;5.23;3.93;;;23.40;65.70;;;;;;5012490;28;20414;-63
2022/10/07 11:55:47;;;;;;;6.60;3.50;;;23.40;67.50;;;;;;5012975;28;20426;-62
2022/10/07 11:58:23;;;;;;;7.17;2.93;;;23.30;65.30;;;;;;5012327;28;20944;-62
2022/10/07 12:00:49;;;;;;;5.83;2.83;;;23.30;69.30;;;;;;5012688;28;20769;-62
2022/10/07 12:03:17;;;;;;;4.37;3.90;;;23.20;67.00;;;;;;5011458;28;20417;-66
2022/10/07 12:05:49;;;;;;;3.90;3.00;;;23.10;65.60;;;;;;5012557;28;20221;-62
2022/10/07 12:08:36;;;;;;;4.00;3.23;;;22.90;66.40;;;;;;5012134;28;20406;-63
2022/10/07 12:11:11;;;;;;;4.93;3.40;;;22.70;67.20;;;;;;5012237;28;20496;-66
2022/10/07 12:13:48;;;;;;;5.63;4.10;;;22.40;66.80;;;;;;5012660;28;20422;-62
2022/10/07 12:16:23;;;;;;;3.93;3.00;;;22.20;67.80;;;;;;5011745;28;20479;-62
2022/10/07 12:19:05;;;;;;;6.90;3.90;;;21.90;67.00;;;;;;5012809;28;20469;-62
2022/10/07 12:22:01;;;;;;;8.43;3.27;;;21.60;69.00;;;;;;5013696;28;20425;-62
2022/10/07 12:24:28;;;;;;;5.10;3.17;;;21.30;69.50;;;;;;5016750;28;20420;-62
2022/10/07 12:26:56;;;;;;;4.47;3.17;;;21.30;71.70;;;;;;5016525;28;20453;-62
2022/10/07 12:29:27;;;;;;;4.10;3.00;;;21.20;72.60;;;;;;5015770;28;20413;-62
2022/10/07 12:31:55;;;;;;;5.33;3.00;;;21.20;72.10;;;;;;5031500;28;20420;-62
2022/10/07 12:34:32;;;;;;;4.17;3.27;;;21.10;71.70;;;;;;5035223;28;20412;-62
2022/10/07 12:37:55;;;;;;;4.17;2.93;;;21.10;71.20;;;;;;5036200;28;20404;-62
2022/10/07 12:40:28;;;;;;;5.17;3.57;;;20.80;71.20;;;;;;4974055;28;20819;-62
2022/10/07 12:43:09;;;;;;;8.37;3.60;;;20.70;71.50;;;;;;4975141;28;20919;-62
2022/10/07 12:45:39;;;;;;;8.07;3.20;;;20.70;73.00;;;;;;5012618;28;20436;-62
2022/10/07 12:48:13;;;;;;;4.50;2.70;;;20.70;72.10;;;;;;5035296;28;20413;-63
2022/10/07 12:50:42;;;;;;;4.70;3.30;;;20.60;74.00;;;;;;5035971;28;20810;-62
2022/10/07 12:53:10;;;;;;;5.87;3.70;;;20.50;72.50;;;;;;5017482;28;20445;-62
2022/10/07 12:55:43;;;;;;;5.90;3.63;;;20.40;73.70;;;;;;5036022;28;20415;-62
2022/10/07 13:01:52;;;;;;;3.00;2.47;;;20.30;72.50;;;;;;5034921;28;20448;-62
2022/10/07 13:04:30;;;;;;;4.83;3.17;;;20.20;72.90;;;;;;5034752;28;20402;-62
2022/10/07 13:07:39;;;;;;;4.77;2.93;;;20.00;73.90;;;;;;5035530;28;20471;-62
2022/10/07 13:10:39;;;;;;;5.40;2.43;;;19.70;73.90;;;;;;5035350;28;20417;-69
2022/10/07 13:13:11;;;;;;;6.63;2.77;;;19.80;75.10;;;;;;5034962;28;20405;-68
2022/10/07 13:15:52;;;;;;;6.17;3.03;;;19.80;75.20;;;;;;5035014;28;20507;-62
2022/10/07 13:18:40;;;;;;;5.83;3.10;;;19.70;74.80;;;;;;5034641;28;20421;-62
2022/10/07 13:21:23;;;;;;;8.20;2.90;;;19.80;77.40;;;;;;5034580;28;20532;-63
2022/10/07 13:23:54;;;;;;;7.00;2.60;;;19.80;75.90;;;;;;5035460;28;20401;-62
2022/10/07 13:26:21;;;;;;;5.40;2.93;;;19.80;75.50;;;;;;5034550;28;20413;-62